createdAt,value
2023-04-02T00:02:12.196Z,91492.53
2023-04-02T00:04:58.065Z,91495.34
2023-04-02T00:07:43.825Z,91495.44
2023-04-02T00:10:29.634Z,91496.19
2023-04-02T00:13:15.477Z,91497.00
2023-04-02T00:16:01.296Z,91486.28
2023-04-02T00:18:47.228Z,91488.94
2023-04-02T00:21:33.172Z,91487.00
2023-04-02T00:24:18.934Z,91491.63
2023-04-02T00:27:04.764Z,91495.34
2023-04-02T00:29:50.585Z,91493.66
2023-04-02T00:32:36.471Z,91492.19
2023-04-02T00:35:22.381Z,91489.50
2023-04-02T00:38:08.223Z,91482.69
2023-04-02T00:40:54.052Z,91483.63
2023-04-02T00:43:39.924Z,91479.34
2023-04-02T00:46:25.956Z,91479.00
2023-04-02T00:49:12.229Z,91482.28
2023-04-02T00:51:57.982Z,91482.78
2023-04-02T00:54:43.871Z,91482.34
2023-04-02T00:57:29.949Z,91486.66
2023-04-02T01:00:16.161Z,91489.34
2023-04-02T01:03:02.155Z,91486.25
2023-04-02T01:05:48.437Z,91483.75
2023-04-02T01:08:34.352Z,91485.34
2023-04-02T01:11:20.212Z,91486.56
2023-04-02T01:14:06.126Z,91491.50
2023-04-02T01:16:51.977Z,91489.53
2023-04-02T01:19:38.142Z,91488.44
2023-04-02T01:22:24.094Z,91492.66
2023-04-02T01:25:09.957Z,91488.88
2023-04-02T01:27:55.739Z,91491.84
2023-04-02T01:30:41.703Z,91489.47
2023-04-02T01:33:27.605Z,91489.19
2023-04-02T01:36:13.529Z,91494.09
2023-04-02T01:38:59.506Z,91496.69
2023-04-02T01:41:45.425Z,91488.72
2023-04-02T01:44:31.159Z,91489.91
2023-04-02T01:47:16.908Z,91482.34
2023-04-02T01:50:02.750Z,91491.22
2023-04-02T01:52:48.635Z,91482.28
2023-04-02T01:55:34.803Z,91489.06
2023-04-02T01:58:20.944Z,91496.66
2023-04-02T02:01:06.931Z,91502.22
2023-04-02T02:03:52.940Z,91498.44
2023-04-02T02:06:38.692Z,91509.59
2023-04-02T02:09:24.696Z,91509.19
2023-04-02T02:12:10.555Z,91502.88
2023-04-02T02:14:56.519Z,91507.66
2023-04-02T02:17:42.414Z,91518.53
2023-04-02T02:20:28.267Z,91520.44
2023-04-02T02:23:14.119Z,91518.81
2023-04-02T02:26:00.132Z,91523.66
2023-04-02T02:28:45.973Z,91527.72
2023-04-02T02:31:31.954Z,91527.16
2023-04-02T02:34:17.728Z,91525.22
2023-04-02T02:37:03.581Z,91531.91
2023-04-02T02:39:49.484Z,91522.91
2023-04-02T02:42:35.401Z,91533.69
2023-04-02T02:45:21.289Z,91529.78
2023-04-02T02:48:07.186Z,91520.72
2023-04-02T02:50:53.037Z,91527.84
2023-04-02T02:53:39.052Z,91530.25
2023-04-02T02:56:24.974Z,91527.91
2023-04-02T02:59:10.805Z,91518.94
2023-04-02T03:01:56.676Z,91522.00
2023-04-02T03:04:42.470Z,91524.50
2023-04-02T03:07:28.382Z,91526.91
2023-04-02T03:10:14.279Z,91523.44
2023-04-02T03:13:00.181Z,91532.00
2023-04-02T03:15:46.083Z,91532.50
2023-04-02T03:18:31.981Z,91535.34
2023-04-02T03:21:17.845Z,91541.69
2023-04-02T03:24:03.669Z,91535.94
2023-04-02T03:26:49.558Z,91543.72
2023-04-02T03:29:35.512Z,91545.00
2023-04-02T03:32:21.201Z,91550.78
2023-04-02T03:35:07.190Z,91550.91
2023-04-02T03:37:53.074Z,91535.22
2023-04-02T03:40:38.886Z,91534.19
2023-04-02T03:43:24.735Z,91537.31
2023-04-02T03:46:12.537Z,91533.38
2023-04-02T03:48:58.439Z,91534.38
2023-04-02T03:51:44.366Z,91537.44
2023-04-02T03:54:30.229Z,91540.44
2023-04-02T03:57:16.123Z,91529.97
2023-04-02T04:00:02.148Z,91543.44
2023-04-02T04:02:48.048Z,91543.69
2023-04-02T04:05:36.197Z,91546.75
2023-04-02T04:08:22.390Z,91549.38
2023-04-02T04:11:08.259Z,91552.03
2023-04-02T04:13:54.288Z,91550.22
2023-04-02T04:16:40.162Z,91547.03
2023-04-02T04:19:25.966Z,91556.13
2023-04-02T04:22:11.998Z,91558.09
2023-04-02T04:24:57.784Z,91561.41
2023-04-02T04:27:43.562Z,91568.59
2023-04-02T04:30:29.543Z,91568.56
2023-04-02T04:33:15.441Z,91566.38
2023-04-02T04:36:01.597Z,91562.19
2023-04-02T04:38:47.385Z,91564.97
2023-04-02T04:41:33.151Z,91566.03
2023-04-02T04:44:18.984Z,91563.81
2023-04-02T04:47:04.926Z,91565.28
2023-04-02T04:49:50.789Z,91572.53
2023-04-02T04:52:36.527Z,91576.78
2023-04-02T04:55:22.430Z,91567.25
2023-04-02T04:58:08.370Z,91572.78
2023-04-02T05:00:54.172Z,91572.41
2023-04-02T05:03:40.084Z,91572.19
2023-04-02T05:06:25.937Z,91569.88
2023-04-02T05:09:11.848Z,91572.69
2023-04-02T05:11:57.735Z,91574.84
2023-04-02T05:14:43.552Z,91576.44
2023-04-02T05:17:29.448Z,91580.31
2023-04-02T05:20:15.367Z,91575.06
2023-04-02T05:23:01.208Z,91578.59
2023-04-02T05:25:47.107Z,91588.59
2023-04-02T05:28:32.930Z,91579.84
2023-04-02T05:31:18.653Z,91583.81
2023-04-02T05:34:04.681Z,91583.16
2023-04-02T05:36:50.456Z,91586.22
2023-04-02T05:39:36.538Z,91581.13
2023-04-02T05:42:22.509Z,91598.63
2023-04-02T05:45:08.278Z,91593.53
2023-04-02T05:47:54.134Z,91598.63
2023-04-02T05:50:39.947Z,91607.16
2023-04-02T05:53:27.904Z,91607.19
2023-04-02T05:56:13.851Z,91610.03
2023-04-02T05:58:59.860Z,91608.84
2023-04-02T06:01:46.041Z,91609.72
2023-04-02T06:04:31.892Z,91606.63
2023-04-02T06:07:17.728Z,91615.44
2023-04-02T06:10:03.553Z,91607.34
2023-04-02T06:12:49.399Z,91614.44
2023-04-02T06:15:35.657Z,91617.78
2023-04-02T06:18:21.797Z,91613.47
2023-04-02T06:21:07.677Z,91614.38
2023-04-02T06:23:53.593Z,91624.72
2023-04-02T06:26:39.609Z,91625.09
2023-04-02T06:29:25.390Z,91629.22
2023-04-02T06:32:11.373Z,91636.44
2023-04-02T06:34:57.334Z,91631.25
2023-04-02T06:37:43.182Z,91636.00
2023-04-02T06:40:30.194Z,91640.09
2023-04-02T06:43:15.965Z,91646.25
2023-04-02T06:46:01.998Z,91645.47
2023-04-02T06:48:48.129Z,91641.94
2023-04-02T06:51:34.017Z,91644.97
2023-04-02T06:54:19.937Z,91642.34
2023-04-02T06:57:05.892Z,91648.03
2023-04-02T06:59:51.638Z,91647.66
2023-04-02T07:02:37.564Z,91648.47
2023-04-02T07:05:23.499Z,91647.72
2023-04-02T07:08:09.395Z,91648.16
2023-04-02T07:10:55.386Z,91653.41
2023-04-02T07:13:41.290Z,91656.06
2023-04-02T07:16:27.398Z,91658.66
2023-04-02T07:19:13.588Z,91663.22
2023-04-02T07:21:59.904Z,91660.31
2023-04-02T07:24:45.820Z,91673.38
2023-04-02T07:27:31.699Z,91671.63
2023-04-02T07:30:17.504Z,91674.38
2023-04-02T07:33:05.518Z,91673.69
2023-04-02T07:35:51.372Z,91680.72
2023-04-02T07:38:37.377Z,91681.97
2023-04-02T07:41:23.324Z,91679.19
2023-04-02T07:44:09.151Z,91679.19
2023-04-02T07:46:54.983Z,91671.69
2023-04-02T07:49:40.837Z,91689.03
2023-04-02T07:52:26.643Z,91680.16
2023-04-02T07:55:12.588Z,91695.84
2023-04-02T07:57:58.468Z,91697.28
2023-04-02T08:00:44.357Z,91691.47
2023-04-02T08:03:30.435Z,91697.88
2023-04-02T08:06:16.748Z,91695.56
2023-04-02T08:09:02.678Z,91692.31
2023-04-02T08:11:48.657Z,91698.50
2023-04-02T08:14:34.617Z,91697.69
2023-04-02T08:17:20.550Z,91704.50
2023-04-02T08:20:06.371Z,91703.31
2023-04-02T08:22:52.399Z,91711.28
2023-04-02T08:25:38.406Z,91705.09
2023-04-02T08:28:24.198Z,91706.22
2023-04-02T08:31:10.232Z,91704.06
2023-04-02T08:33:56.252Z,91709.06
2023-04-02T08:36:42.197Z,91709.13
2023-04-02T08:39:30.128Z,91702.94
2023-04-02T08:42:16.018Z,91704.41
2023-04-02T08:45:08.117Z,91712.81
2023-04-02T08:48:00.220Z,91714.63
2023-04-02T08:50:46.316Z,91715.06
2023-04-02T08:53:32.277Z,91714.69
2023-04-02T08:56:18.102Z,91734.69
2023-04-02T08:59:04.030Z,91729.56
2023-04-02T09:01:50.084Z,91731.81
2023-04-02T09:04:35.963Z,91738.28
2023-04-02T09:07:21.854Z,91737.56
2023-04-02T09:10:09.783Z,91743.16
2023-04-02T09:12:55.664Z,91738.81
2023-04-02T09:15:41.579Z,91747.13
2023-04-02T09:18:27.683Z,91753.16
2023-04-02T09:21:13.565Z,91743.84
2023-04-02T09:23:59.502Z,91762.63
2023-04-02T09:26:45.300Z,91758.00
2023-04-02T09:29:31.226Z,91762.47
2023-04-02T09:32:17.167Z,91767.94
2023-04-02T09:35:05.551Z,91764.56
2023-04-02T09:37:55.359Z,91765.25
2023-04-02T09:40:41.209Z,91770.09
2023-04-02T09:43:26.937Z,91778.06
2023-04-02T09:46:13.039Z,91775.28
2023-04-02T09:48:59.037Z,91783.59
2023-04-02T09:51:44.756Z,91786.50
2023-04-02T09:54:30.663Z,91794.13
2023-04-02T09:57:16.614Z,91799.44
2023-04-02T10:00:02.617Z,91798.78
2023-04-02T10:02:48.664Z,91799.09
2023-04-02T10:05:39.911Z,91798.66
2023-04-02T10:08:27.296Z,91808.75
2023-04-02T10:11:13.132Z,91813.78
2023-04-02T10:13:59.159Z,91810.19
2023-04-02T10:16:45.072Z,91814.22
2023-04-02T10:19:31.082Z,91805.56
2023-04-02T10:22:16.999Z,91812.88
2023-04-02T10:25:02.900Z,91817.19
2023-04-02T10:27:48.737Z,91827.97
2023-04-02T10:30:34.656Z,91824.16
2023-04-02T10:33:20.650Z,91830.03
2023-04-02T10:36:06.578Z,91826.78
2023-04-02T10:38:52.478Z,91838.53
2023-04-02T10:41:38.372Z,91835.38
2023-04-02T10:44:24.276Z,91832.16
2023-04-02T10:47:10.155Z,91833.13
2023-04-02T10:49:56.040Z,91843.81
2023-04-02T10:52:41.782Z,91836.22
2023-04-02T10:55:27.613Z,91843.47
2023-04-02T10:58:13.631Z,91838.94
2023-04-02T11:00:59.460Z,91837.31
2023-04-02T11:03:45.379Z,91841.06
2023-04-02T11:06:31.724Z,91846.38
2023-04-02T11:09:17.660Z,91841.88
2023-04-02T11:12:03.584Z,91847.09
2023-04-02T11:14:49.429Z,91845.56
2023-04-02T11:17:35.483Z,91843.78
2023-04-02T11:20:21.455Z,91847.63
2023-04-02T11:23:07.355Z,91850.88
2023-04-02T11:25:53.277Z,91857.06
2023-04-02T11:28:39.132Z,91860.75
2023-04-02T11:31:25.075Z,91866.97
2023-04-02T11:34:11.015Z,91866.31
2023-04-02T11:36:56.765Z,91858.78
2023-04-02T11:39:42.664Z,91872.63
2023-04-02T11:42:28.609Z,91867.00
2023-04-02T11:45:14.522Z,91859.19
2023-04-02T11:48:00.549Z,91867.50
2023-04-02T11:50:46.911Z,91871.63
2023-04-02T11:53:33.255Z,91875.00
2023-04-02T11:56:19.242Z,91877.28
2023-04-02T11:59:05.115Z,91879.13
2023-04-02T12:01:51.094Z,91879.50
2023-04-02T12:04:36.985Z,91879.88
2023-04-02T12:07:22.843Z,91887.66
2023-04-02T12:10:08.728Z,91892.25
2023-04-02T12:12:54.640Z,91882.06
2023-04-02T12:15:40.504Z,91892.38
2023-04-02T12:18:26.335Z,91890.94
2023-04-02T12:21:12.277Z,91896.78
2023-04-02T12:23:58.271Z,91894.50
2023-04-02T12:26:44.160Z,91894.47
2023-04-02T12:29:30.036Z,91896.41
2023-04-02T12:32:16.010Z,91898.38
2023-04-02T12:35:01.944Z,91896.94
2023-04-02T12:37:47.817Z,91898.28
2023-04-02T12:40:33.828Z,91895.28
2023-04-02T12:43:20.201Z,91906.16
2023-04-02T12:46:06.051Z,91905.34
2023-04-02T12:48:51.951Z,91899.84
2023-04-02T12:51:37.856Z,91905.34
2023-04-02T12:54:23.797Z,91903.44
2023-04-02T12:57:09.615Z,91906.59
2023-04-02T12:59:55.556Z,91895.31
2023-04-02T13:02:41.458Z,91906.66
2023-04-02T13:05:27.419Z,91903.66
2023-04-02T13:08:13.275Z,91907.44
2023-04-02T13:10:59.018Z,91903.81
2023-04-02T13:13:45.088Z,91909.00
2023-04-02T13:16:31.048Z,91898.69
2023-04-02T13:19:16.866Z,91900.41
2023-04-02T13:22:02.803Z,91899.41
2023-04-02T13:24:48.655Z,91889.59
2023-04-02T13:27:34.458Z,91889.75
2023-04-02T13:30:20.321Z,91893.25
2023-04-02T13:33:06.135Z,91900.13
2023-04-02T13:35:52.161Z,91887.44
2023-04-02T13:38:38.198Z,91890.94
2023-04-02T13:41:24.102Z,91897.16
2023-04-02T13:44:10.014Z,91892.81
2023-04-02T13:46:55.795Z,91900.59
2023-04-02T13:49:41.837Z,91895.53
2023-04-02T13:52:27.742Z,91889.41
2023-04-02T13:55:13.553Z,91900.91
2023-04-02T13:57:59.396Z,91904.72
2023-04-02T14:00:45.242Z,91898.63
2023-04-02T14:03:31.158Z,91899.50
2023-04-02T14:06:17.093Z,91901.50
2023-04-02T14:09:02.790Z,91896.78
2023-04-02T14:11:48.637Z,91901.47
2023-04-02T14:14:34.555Z,91902.25
2023-04-02T14:17:20.461Z,91905.34
2023-04-02T14:20:06.422Z,91904.94
2023-04-02T14:22:52.354Z,91904.25
2023-04-02T14:25:38.341Z,91911.63
2023-04-02T14:28:24.723Z,91914.00
2023-04-02T14:31:10.591Z,91915.38
2023-04-02T14:33:56.539Z,91917.88
2023-04-02T14:36:42.584Z,91924.47
2023-04-02T14:39:28.407Z,91921.13
2023-04-02T14:42:14.298Z,91917.31
2023-04-02T14:45:00.350Z,91918.50
2023-04-02T14:47:46.134Z,91920.84
2023-04-02T14:50:34.312Z,91910.44
2023-04-02T14:53:20.316Z,91917.31
2023-04-02T14:56:06.113Z,91914.72
2023-04-02T14:58:51.937Z,91913.72
2023-04-02T15:01:37.943Z,91918.91
2023-04-02T15:04:24.240Z,91922.34
2023-04-02T15:07:10.233Z,91926.13
2023-04-02T15:09:56.011Z,91926.94
2023-04-02T15:12:41.906Z,91932.94
2023-04-02T15:15:39.006Z,91931.44
2023-04-02T15:18:25.637Z,91936.41
2023-04-02T15:21:11.440Z,91934.50
2023-04-02T15:23:57.392Z,91931.94
2023-04-02T15:26:43.245Z,91934.28
2023-04-02T15:29:29.746Z,91940.56
2023-04-02T15:32:16.070Z,91940.25
2023-04-02T15:35:01.978Z,91934.25
2023-04-02T15:37:47.841Z,91937.50
2023-04-02T15:40:33.816Z,91940.66
2023-04-02T15:43:19.770Z,91941.56
2023-04-02T15:46:05.646Z,91950.28
2023-04-02T15:48:51.742Z,91934.19
2023-04-02T15:51:37.626Z,91937.19
2023-04-02T15:54:23.640Z,91936.81
2023-04-02T15:57:09.502Z,91933.41
2023-04-02T15:59:55.455Z,91938.81
2023-04-02T16:02:41.445Z,91938.63
2023-04-02T16:05:27.712Z,91939.34
2023-04-02T16:08:13.501Z,91938.78
2023-04-02T16:10:59.450Z,91944.59
2023-04-02T16:13:45.204Z,91953.19
2023-04-02T16:16:31.238Z,91948.06
2023-04-02T16:19:17.210Z,91950.59
2023-04-02T16:22:03.454Z,91959.19
2023-04-02T16:24:51.381Z,91955.09
2023-04-02T16:27:37.316Z,91960.94
2023-04-02T16:30:23.166Z,91962.72
2023-04-02T16:33:09.159Z,91960.50
2023-04-02T16:35:55.319Z,91966.72
2023-04-02T16:38:41.613Z,91963.88
2023-04-02T16:41:27.503Z,91973.47
2023-04-02T16:44:13.218Z,91978.63
2023-04-02T16:47:01.265Z,91980.84
2023-04-02T16:49:47.551Z,91987.44
2023-04-02T16:52:33.342Z,91986.06
2023-04-02T16:55:19.265Z,91988.72
2023-04-02T16:58:05.130Z,91995.50
2023-04-02T17:00:51.052Z,92004.91
2023-04-02T17:03:37.113Z,92002.03
2023-04-02T17:06:23.040Z,92009.91
2023-04-02T17:09:08.998Z,92008.84
2023-04-02T17:11:54.855Z,92010.84
2023-04-02T17:14:40.626Z,92011.19
2023-04-02T17:17:26.542Z,92015.44
2023-04-02T17:20:12.451Z,92012.13
2023-04-02T17:22:58.283Z,92018.47
2023-04-02T17:25:44.305Z,92026.25
2023-04-02T17:28:30.190Z,92026.38
2023-04-02T17:31:16.389Z,92029.84
2023-04-02T17:34:02.289Z,92033.31
2023-04-02T17:36:48.099Z,92035.31
2023-04-02T17:39:34.018Z,92038.47
2023-04-02T17:42:19.916Z,92032.91
2023-04-02T17:45:05.823Z,92037.88
2023-04-02T17:47:51.811Z,92045.03
2023-04-02T17:50:37.938Z,92049.25
2023-04-02T17:53:24.531Z,92050.50
2023-04-02T17:56:10.514Z,92046.63
2023-04-02T17:58:56.266Z,92052.19
2023-04-02T18:01:42.217Z,92050.59
2023-04-02T18:04:28.073Z,92046.41
2023-04-02T18:07:13.888Z,92057.66
2023-04-02T18:09:59.786Z,92052.78
2023-04-02T18:12:45.593Z,92058.81
2023-04-02T18:15:31.510Z,92055.44
2023-04-02T18:18:17.388Z,92059.50
2023-04-02T18:21:03.311Z,92061.53
2023-04-02T18:23:49.325Z,92064.53
2023-04-02T18:26:35.254Z,92063.56
2023-04-02T18:29:21.197Z,92061.63
2023-04-02T18:32:07.201Z,92067.94
2023-04-02T18:34:53.055Z,92074.22
2023-04-02T18:37:39.013Z,92078.31
2023-04-02T18:40:24.895Z,92086.97
2023-04-02T18:43:10.864Z,92093.56
2023-04-02T18:45:56.856Z,92091.75
2023-04-02T18:48:42.702Z,92094.00
2023-04-02T18:51:28.707Z,92096.59
2023-04-02T18:54:14.521Z,92097.91
2023-04-02T18:57:00.361Z,92095.22
2023-04-02T18:59:46.352Z,92101.63
2023-04-02T19:02:32.323Z,92104.31
2023-04-02T19:05:18.580Z,92103.41
2023-04-02T19:08:04.399Z,92101.91
2023-04-02T19:10:50.090Z,92107.63
2023-04-02T19:13:35.981Z,92106.31
2023-04-02T19:16:22.120Z,92114.66
2023-04-02T19:19:08.050Z,92112.72
2023-04-02T19:21:53.848Z,92118.88
2023-04-02T19:24:39.780Z,92123.88
2023-04-02T19:27:25.734Z,92118.19
2023-04-02T19:30:11.700Z,92123.53
2023-04-02T19:32:57.614Z,92125.88
2023-04-02T19:35:43.655Z,92131.13
2023-04-02T19:38:29.584Z,92129.75
2023-04-02T19:41:15.511Z,92140.88
2023-04-02T19:44:01.489Z,92136.34
2023-04-02T19:46:47.273Z,92142.97
2023-04-02T19:49:33.245Z,92139.09
2023-04-02T19:52:19.011Z,92152.00
2023-04-02T19:55:04.863Z,92150.94
2023-04-02T19:57:52.645Z,92156.91
2023-04-02T20:00:40.760Z,92155.78
2023-04-02T20:03:26.616Z,92156.38
2023-04-02T20:06:12.920Z,92157.25
2023-04-02T20:08:59.199Z,92163.91
2023-04-02T20:11:45.001Z,92165.41
2023-04-02T20:14:30.873Z,92170.34
2023-04-02T20:17:16.741Z,92168.13
2023-04-02T20:20:02.583Z,92168.38
2023-04-02T20:22:48.502Z,92175.00
2023-04-02T20:25:34.398Z,92169.16
2023-04-02T20:28:20.415Z,92175.72
2023-04-02T20:31:06.368Z,92177.31
2023-04-02T20:33:52.436Z,92167.31
2023-04-02T20:36:38.745Z,92172.94
2023-04-02T20:39:24.576Z,92175.66
2023-04-02T20:42:10.388Z,92176.84
2023-04-02T20:44:56.236Z,92181.81
2023-04-02T20:47:42.139Z,92187.31
2023-04-02T20:50:28.050Z,92194.94
2023-04-02T20:53:14.012Z,92192.00
2023-04-02T20:55:59.853Z,92196.66
2023-04-02T20:58:45.748Z,92184.31
2023-04-02T21:01:31.617Z,92188.47
2023-04-02T21:04:17.476Z,92184.88
2023-04-02T21:07:03.541Z,92187.25
2023-04-02T21:09:49.440Z,92188.59
2023-04-02T21:12:35.374Z,92197.81
2023-04-02T21:15:21.290Z,92201.78
2023-04-02T21:18:07.162Z,92199.53
2023-04-02T21:20:53.104Z,92204.38
2023-04-02T21:23:38.936Z,92210.28
2023-04-02T21:26:24.733Z,92203.09
2023-04-02T21:29:10.747Z,92204.28
2023-04-02T21:31:56.815Z,92206.38
2023-04-02T21:34:43.070Z,92207.78
2023-04-02T21:37:28.964Z,92213.00
2023-04-02T21:40:14.884Z,92210.63
2023-04-02T21:43:00.834Z,92215.09
2023-04-02T21:45:46.657Z,92205.88
2023-04-02T21:48:32.524Z,92208.31
2023-04-02T21:51:18.665Z,92213.81
2023-04-02T21:54:04.546Z,92199.63
2023-04-02T21:56:50.386Z,92211.28
2023-04-02T21:59:36.285Z,92205.13
2023-04-02T22:02:22.149Z,92208.13
2023-04-02T22:05:07.974Z,92209.91
2023-04-02T22:07:53.842Z,92206.22
2023-04-02T22:10:39.677Z,92212.78
2023-04-02T22:13:25.675Z,92209.41
2023-04-02T22:16:11.532Z,92206.03
2023-04-02T22:18:57.372Z,92211.03
2023-04-02T22:21:43.439Z,92206.97
2023-04-02T22:24:29.412Z,92212.00
2023-04-02T22:27:21.792Z,92207.50
2023-04-02T22:30:07.572Z,92205.19
2023-04-02T22:32:53.674Z,92208.94
2023-04-02T22:35:39.513Z,92207.91
2023-04-02T22:38:25.373Z,92204.84
2023-04-02T22:41:11.413Z,92197.75
2023-04-02T22:43:57.098Z,92208.66
2023-04-02T22:46:43.038Z,92208.09
2023-04-02T22:49:28.872Z,92206.34
2023-04-02T22:52:14.679Z,92208.56
2023-04-02T22:55:00.431Z,92203.38
2023-04-02T22:57:46.384Z,92199.94
2023-04-02T23:00:32.183Z,92193.66
2023-04-02T23:03:18.247Z,92196.88
2023-04-02T23:06:04.107Z,92203.38
2023-04-02T23:08:49.941Z,92201.88
2023-04-02T23:11:35.772Z,92202.41
2023-04-02T23:14:21.732Z,92194.53
2023-04-02T23:17:07.650Z,92181.91
2023-04-02T23:19:53.514Z,92188.97
2023-04-02T23:22:39.465Z,92188.47
2023-04-02T23:25:25.347Z,92185.34
2023-04-02T23:28:11.243Z,92180.13
2023-04-02T23:30:57.177Z,92176.44
2023-04-02T23:33:42.954Z,92181.53
2023-04-02T23:36:28.903Z,92186.75
2023-04-02T23:39:14.811Z,92178.50
2023-04-02T23:42:00.751Z,92177.03
2023-04-02T23:44:46.641Z,92184.47
2023-04-02T23:47:32.493Z,92187.84
2023-04-02T23:50:18.416Z,92185.03
2023-04-02T23:53:04.419Z,92183.84
2023-04-02T23:55:50.263Z,92185.91
2023-04-02T23:58:36.127Z,92179.59
